createdAt,value
2022-08-11T00:01:27.284Z,17.77
2022-08-11T00:03:55.746Z,17.81
2022-08-11T00:06:35.053Z,17.79
2022-08-11T00:09:05.079Z,17.72
2022-08-11T00:11:37.841Z,17.61
2022-08-11T00:14:37.125Z,17.54
2022-08-11T00:17:15.340Z,17.65
2022-08-11T00:20:11.712Z,17.61
2022-08-11T00:22:33.772Z,17.69
2022-08-11T00:25:10.418Z,17.43
2022-08-11T00:27:40.532Z,17.38
2022-08-11T00:30:09.303Z,17.45
2022-08-11T00:32:41.433Z,17.41
2022-08-11T00:35:55.701Z,17.44
2022-08-11T00:38:01.688Z,17.36
2022-08-11T00:40:37.973Z,17.30
2022-08-11T00:43:20.252Z,17.18
2022-08-11T00:46:22.610Z,17.15
2022-08-11T00:49:03.123Z,17.06
2022-08-11T00:52:18.968Z,17.11
2022-08-11T00:55:04.768Z,17.14
2022-08-11T00:58:14.160Z,17.03
2022-08-11T01:01:29.682Z,16.92
2022-08-11T01:04:46.654Z,16.88
2022-08-11T01:11:27.765Z,16.83
2022-08-11T01:14:34.137Z,16.88
2022-08-11T01:17:47.792Z,16.85
2022-08-11T01:20:48.411Z,16.65
2022-08-11T01:23:52.212Z,16.63
2022-08-11T01:26:41.081Z,16.71
2022-08-11T01:29:42.110Z,16.67
2022-08-11T01:32:46.115Z,16.69
2022-08-11T01:35:48.280Z,16.67
2022-08-11T01:38:33.575Z,16.60
2022-08-11T01:42:01.652Z,16.68
2022-08-11T01:45:03.709Z,16.53
2022-08-11T01:47:54.184Z,16.53
2022-08-11T01:50:28.647Z,16.50
2022-08-11T01:53:19.647Z,16.38
2022-08-11T01:56:00.444Z,16.16
2022-08-11T01:59:04.530Z,16.05
2022-08-11T02:01:58.719Z,16.21
2022-08-11T02:04:34.507Z,16.03
2022-08-11T02:07:03.796Z,16.12
2022-08-11T02:09:55.552Z,16.12
2022-08-11T02:12:42.271Z,16.22
2022-08-11T02:15:46.326Z,16.25
2022-08-11T02:18:24.392Z,16.11
2022-08-11T02:21:26.486Z,15.92
2022-08-11T02:24:04.191Z,16.04
2022-08-11T02:26:42.310Z,15.89
2022-08-11T02:29:33.963Z,15.87
2022-08-11T02:32:43.125Z,15.87
2022-08-11T02:35:56.267Z,15.91
2022-08-11T02:38:45.579Z,15.70
2022-08-11T02:42:32.024Z,15.71
2022-08-11T02:45:29.842Z,15.66
2022-08-11T02:48:46.364Z,15.63
2022-08-11T02:51:43.963Z,15.53
2022-08-11T02:54:45.418Z,15.63
2022-08-11T02:57:41.127Z,15.59
2022-08-11T03:00:16.323Z,15.66
2022-08-11T03:03:11.466Z,15.43
2022-08-11T03:05:55.217Z,15.38
2022-08-11T03:08:25.262Z,15.57
2022-08-11T03:11:27.850Z,15.58
2022-08-11T03:14:29.035Z,15.50
2022-08-11T03:17:06.631Z,15.52
2022-08-11T03:19:56.888Z,15.49
2022-08-11T03:22:41.162Z,15.30
2022-08-11T03:26:04.187Z,15.23
2022-08-11T03:28:42.347Z,15.34
2022-08-11T03:31:26.037Z,15.21
2022-08-11T03:34:19.317Z,15.17
2022-08-11T03:37:17.896Z,15.16
2022-08-11T03:40:08.480Z,15.12
2022-08-11T03:43:25.444Z,15.17
2022-08-11T03:46:20.924Z,15.09
2022-08-11T03:48:58.849Z,15.15
2022-08-11T03:51:44.936Z,15.02
2022-08-11T03:54:24.962Z,15.00
2022-08-11T03:57:29.476Z,14.99
2022-08-11T04:00:21.479Z,14.80
2022-08-11T04:03:23.502Z,14.76
2022-08-11T04:06:35.569Z,14.75
2022-08-11T04:09:48.114Z,14.79
2022-08-11T04:12:57.422Z,14.74
2022-08-11T04:16:12.451Z,14.70
2022-08-11T04:19:34.193Z,14.78
2022-08-11T04:22:38.502Z,14.58
2022-08-11T04:25:58.223Z,14.71
2022-08-11T04:28:42.992Z,14.68
2022-08-11T04:32:31.385Z,14.73
2022-08-11T04:35:19.852Z,14.70
2022-08-11T04:38:15.766Z,14.72
2022-08-11T04:41:20.355Z,14.75
2022-08-11T04:44:26.896Z,14.79
2022-08-11T04:47:01.342Z,14.81
2022-08-11T04:54:02.322Z,14.69
2022-08-11T04:56:48.406Z,14.75
2022-08-11T05:00:03.160Z,14.91
2022-08-11T05:03:15.336Z,14.96
2022-08-11T05:06:11.749Z,15.00
2022-08-11T05:09:21.099Z,15.10
2022-08-11T05:12:30.751Z,15.10
2022-08-11T05:15:18.026Z,15.19
2022-08-11T05:18:17.565Z,15.24
2022-08-11T05:21:08.430Z,15.44
2022-08-11T05:23:58.282Z,15.58
2022-08-11T05:26:49.103Z,15.66
2022-08-11T05:30:05.336Z,15.64
2022-08-11T05:33:02.343Z,15.72
2022-08-11T05:36:02.124Z,15.81
2022-08-11T05:38:46.596Z,15.93
2022-08-11T05:41:34.367Z,15.88
2022-08-11T05:44:22.615Z,15.98
2022-08-11T05:47:09.343Z,15.98
2022-08-11T05:49:57.787Z,16.07
2022-08-11T05:52:56.531Z,16.23
2022-08-11T05:56:02.082Z,16.21
2022-08-11T05:58:41.995Z,16.37
2022-08-11T06:01:14.122Z,16.47
2022-08-11T06:04:03.943Z,16.57
2022-08-11T06:06:32.449Z,16.78
2022-08-11T06:08:59.794Z,16.93
2022-08-11T06:11:43.766Z,17.06
2022-08-11T06:14:14.842Z,17.20
2022-08-11T06:16:44.150Z,17.33
2022-08-11T06:19:13.634Z,17.47
2022-08-11T06:21:47.035Z,17.52
2022-08-11T06:24:15.949Z,17.67
2022-08-11T06:27:11.337Z,17.75
2022-08-11T06:29:48.019Z,17.93
2022-08-11T06:32:24.983Z,18.06
2022-08-11T06:35:18.873Z,18.19
2022-08-11T06:38:11.294Z,18.37
2022-08-11T06:41:08.459Z,18.54
2022-08-11T06:44:18.309Z,18.72
2022-08-11T06:46:51.989Z,18.84
2022-08-11T06:49:40.793Z,18.99
2022-08-11T06:52:34.893Z,19.13
2022-08-11T06:55:11.371Z,19.27
2022-08-11T06:58:14.312Z,19.37
2022-08-11T07:00:42.184Z,19.54
2022-08-11T07:03:14.212Z,19.70
2022-08-11T07:05:46.310Z,19.90
2022-08-11T07:08:51.900Z,20.07
2022-08-11T07:12:06.711Z,20.22
2022-08-11T07:14:53.327Z,20.38
2022-08-11T07:17:27.624Z,20.54
2022-08-11T07:20:17.868Z,20.64
2022-08-11T07:23:17.585Z,20.86
2022-08-11T07:26:06.671Z,21.08
2022-08-11T07:28:54.278Z,21.33
2022-08-11T07:31:36.149Z,21.56
2022-08-11T07:34:28.403Z,21.72
2022-08-11T07:37:09.147Z,21.97
2022-08-11T07:39:39.583Z,22.14
2022-08-11T07:42:09.151Z,22.24
2022-08-11T07:44:56.838Z,22.39
2022-08-11T07:47:43.153Z,22.62
2022-08-11T07:50:31.034Z,22.81
2022-08-11T07:52:59.784Z,23.02
2022-08-11T07:55:51.890Z,23.14
2022-08-11T07:58:45.255Z,23.29
2022-08-11T08:01:41.913Z,23.40
2022-08-11T08:04:29.185Z,23.46
2022-08-11T08:07:15.810Z,23.51
2022-08-11T08:10:02.219Z,23.68
2022-08-11T08:12:49.331Z,23.83
2022-08-11T08:15:36.736Z,23.90
2022-08-11T08:18:09.720Z,24.00
2022-08-11T08:20:52.073Z,24.21
2022-08-11T08:23:44.147Z,24.41
2022-08-11T08:26:34.346Z,24.49
2022-08-11T08:29:25.372Z,24.62
2022-08-11T08:31:53.196Z,24.70
2022-08-11T08:34:20.848Z,24.84
2022-08-11T08:36:51.342Z,24.91
2022-08-11T08:39:23.664Z,25.05
2022-08-11T08:41:56.752Z,25.19
2022-08-11T08:44:38.402Z,25.25
2022-08-11T08:47:09.588Z,25.38
2022-08-11T08:49:40.619Z,25.38
2022-08-11T08:52:28.058Z,25.50
2022-08-11T08:55:03.153Z,25.61
2022-08-11T08:57:39.789Z,25.74
2022-08-11T09:00:13.109Z,25.76
2022-08-11T09:02:45.256Z,25.74
2022-08-11T09:05:13.013Z,25.93
2022-08-11T09:07:41.413Z,25.80
2022-08-11T09:10:10.691Z,26.02
2022-08-11T09:12:42.124Z,26.19
2022-08-11T09:15:12.056Z,26.24
2022-08-11T09:18:09.858Z,26.46
2022-08-11T09:20:39.033Z,26.65
2022-08-11T09:24:07.711Z,26.81
2022-08-11T09:26:35.166Z,26.76
2022-08-11T09:29:05.958Z,27.00
2022-08-11T09:31:40.283Z,27.08
2022-08-11T09:34:10.403Z,26.94
2022-08-11T09:36:58.869Z,26.94
2022-08-11T09:39:47.277Z,27.00
2022-08-11T09:42:16.500Z,27.17
2022-08-11T09:44:50.938Z,27.38
2022-08-11T09:47:29.369Z,27.59
2022-08-11T09:50:02.424Z,27.55
2022-08-11T09:52:32.025Z,27.62
2022-08-11T09:54:59.415Z,27.62
2022-08-11T09:57:45.585Z,27.54
2022-08-11T10:00:15.563Z,27.56
2022-08-11T10:02:48.653Z,27.69
2022-08-11T10:05:38.363Z,27.75
2022-08-11T10:08:09.771Z,27.80
2022-08-11T10:10:38.948Z,27.92
2022-08-11T10:14:32.252Z,28.03
2022-08-11T10:16:15.763Z,28.12
2022-08-11T10:18:54.307Z,28.29
2022-08-11T10:21:35.896Z,28.28
2022-08-11T10:24:22.150Z,28.25
2022-08-11T10:27:00.360Z,28.22
2022-08-11T10:29:52.171Z,28.35
2022-08-11T10:32:57.634Z,28.59
2022-08-11T10:35:31.679Z,28.62
2022-08-11T10:38:08.144Z,28.60
2022-08-11T10:40:39.955Z,28.67
2022-08-11T10:43:14.457Z,28.68
2022-08-11T10:46:29.748Z,28.69
2022-08-11T10:48:59.633Z,28.58
2022-08-11T10:51:51.028Z,28.60
2022-08-11T10:54:41.528Z,28.61
2022-08-11T10:57:27.813Z,28.77
2022-08-11T10:59:57.410Z,28.77
2022-08-11T11:02:27.703Z,28.87
2022-08-11T11:05:09.553Z,28.74
2022-08-11T11:07:44.056Z,28.93
2022-08-11T11:10:13.086Z,28.93
2022-08-11T11:13:05.883Z,28.82
2022-08-11T11:15:55.622Z,28.83
2022-08-11T11:18:26.404Z,29.02
2022-08-11T11:21:09.835Z,28.92
2022-08-11T11:24:15.258Z,29.02
2022-08-11T11:27:15.255Z,29.07
2022-08-11T11:29:57.005Z,29.04
2022-08-11T11:32:37.693Z,29.05
2022-08-11T11:35:55.040Z,29.14
2022-08-11T11:38:22.561Z,29.15
2022-08-11T11:41:10.333Z,29.15
2022-08-11T11:43:37.436Z,29.03
2022-08-11T11:46:06.488Z,29.17
2022-08-11T11:48:34.534Z,28.91
2022-08-11T11:51:01.479Z,29.15
2022-08-11T11:53:29.337Z,29.24
2022-08-11T11:55:57.396Z,29.32
2022-08-11T11:58:43.412Z,29.33
2022-08-11T12:01:17.010Z,29.15
2022-08-11T12:03:46.835Z,29.12
2022-08-11T12:06:14.645Z,29.07
2022-08-11T12:08:42.740Z,29.18
2022-08-11T12:11:30.675Z,29.48
2022-08-11T12:14:02.679Z,29.37
2022-08-11T12:16:36.412Z,29.37
2022-08-11T12:19:11.939Z,29.46
2022-08-11T12:22:00.851Z,29.57
2022-08-11T12:24:52.071Z,29.34
2022-08-11T12:27:25.120Z,29.35
2022-08-11T12:29:58.759Z,29.26
2022-08-11T12:32:28.436Z,29.53
2022-08-11T12:34:57.351Z,29.50
2022-08-11T12:37:37.329Z,29.76
2022-08-11T12:40:43.589Z,29.66
2022-08-11T12:43:38.415Z,29.67
2022-08-11T12:46:17.035Z,29.87
2022-08-11T12:49:05.495Z,29.54
2022-08-11T12:52:10.996Z,29.61
2022-08-11T12:54:42.595Z,29.70
2022-08-11T12:57:53.120Z,29.92
2022-08-11T13:00:39.825Z,29.92
2022-08-11T13:03:27.838Z,29.97
2022-08-11T13:06:00.542Z,30.12
2022-08-11T13:08:29.742Z,30.06
2022-08-11T13:11:17.919Z,30.15
2022-08-11T13:13:54.906Z,30.06
2022-08-11T13:16:33.492Z,30.02
2022-08-11T13:19:05.165Z,29.96
2022-08-11T13:21:32.326Z,29.95
2022-08-11T13:24:02.770Z,30.10
2022-08-11T13:26:43.531Z,30.01
2022-08-11T13:29:24.895Z,29.84
2022-08-11T13:31:56.219Z,29.75
2022-08-11T13:34:28.240Z,29.84
2022-08-11T13:36:56.502Z,30.03
2022-08-11T13:39:25.882Z,30.23
2022-08-11T13:41:57.715Z,30.24
2022-08-11T13:44:27.626Z,30.00
2022-08-11T13:47:04.744Z,30.16
2022-08-11T13:49:41.917Z,30.14
2022-08-11T13:52:14.331Z,30.19
2022-08-11T13:54:42.686Z,30.23
2022-08-11T13:57:16.557Z,30.20
2022-08-11T14:00:13.215Z,30.13
2022-08-11T14:02:52.653Z,30.01
2022-08-11T14:05:25.624Z,29.78
2022-08-11T14:08:01.778Z,30.21
2022-08-11T14:10:30.830Z,30.38
2022-08-11T14:13:27.808Z,30.52
2022-08-11T14:15:58.778Z,30.34
2022-08-11T14:18:27.188Z,30.34
2022-08-11T14:21:15.580Z,30.03
2022-08-11T14:23:45.599Z,30.17
2022-08-11T14:26:29.030Z,29.89
2022-08-11T14:29:08.930Z,29.92
2022-08-11T14:31:43.827Z,29.97
2022-08-11T14:34:12.746Z,30.07
2022-08-11T14:36:45.593Z,30.21
2022-08-11T14:39:16.035Z,30.40
2022-08-11T14:42:12.478Z,30.38
2022-08-11T14:45:22.915Z,30.58
2022-08-11T14:47:53.725Z,30.68
2022-08-11T14:50:25.581Z,30.80
2022-08-11T14:52:58.485Z,30.67
2022-08-11T14:55:46.778Z,30.47
2022-08-11T14:58:17.967Z,30.32
2022-08-11T15:00:45.827Z,30.32
2022-08-11T15:03:14.367Z,30.56
2022-08-11T15:06:08.534Z,30.54
2022-08-11T15:08:55.566Z,30.69
2022-08-11T15:11:48.131Z,30.74
2022-08-11T15:14:35.662Z,30.60
2022-08-11T15:17:08.308Z,30.56
2022-08-11T15:19:40.632Z,30.17
2022-08-11T15:22:28.593Z,30.30
2022-08-11T15:24:57.609Z,30.67
2022-08-11T15:27:47.993Z,30.74
2022-08-11T15:30:34.271Z,30.83
2022-08-11T15:33:27.602Z,30.71
2022-08-11T15:36:17.370Z,30.69
2022-08-11T15:38:58.713Z,30.79
2022-08-11T15:41:58.499Z,30.61
2022-08-11T15:45:02.016Z,30.60
2022-08-11T15:47:38.420Z,30.35
2022-08-11T15:50:11.926Z,30.48
2022-08-11T15:52:42.106Z,30.17
2022-08-11T15:55:09.588Z,30.26
2022-08-11T15:57:55.881Z,30.38
2022-08-11T16:00:41.411Z,30.50
2022-08-11T16:04:06.844Z,30.58
2022-08-11T16:06:14.649Z,30.38
2022-08-11T16:08:43.491Z,30.23
2022-08-11T16:11:11.792Z,30.20
2022-08-11T16:13:42.168Z,30.09
2022-08-11T16:16:16.782Z,30.27
2022-08-11T16:18:52.250Z,30.30
2022-08-11T16:21:36.171Z,30.35
2022-08-11T16:24:08.565Z,30.36
2022-08-11T16:27:10.191Z,30.15
2022-08-11T16:29:27.367Z,30.43
2022-08-11T16:32:14.457Z,30.56
2022-08-11T16:35:01.035Z,30.38
2022-08-11T16:37:47.142Z,29.97
2022-08-11T16:40:15.487Z,29.78
2022-08-11T16:43:10.639Z,29.60
2022-08-11T16:45:58.172Z,29.65
2022-08-11T16:48:35.670Z,29.46
2022-08-11T16:51:07.975Z,29.37
2022-08-11T16:53:54.872Z,29.32
2022-08-11T16:56:30.478Z,29.16
2022-08-11T16:59:17.619Z,29.09
2022-08-11T17:01:56.924Z,28.98
2022-08-11T17:04:55.645Z,28.82
2022-08-11T17:07:43.690Z,28.84
2022-08-11T17:10:52.825Z,28.73
2022-08-11T17:13:26.627Z,28.69
2022-08-11T17:16:08.351Z,28.47
2022-08-11T17:18:50.682Z,28.45
2022-08-11T17:21:24.202Z,28.29
2022-08-11T17:23:55.491Z,28.43
2022-08-11T17:26:50.427Z,28.34
2022-08-11T17:29:19.530Z,28.24
2022-08-11T17:32:06.148Z,28.15
2022-08-11T17:34:53.165Z,28.22
2022-08-11T17:37:21.468Z,28.11
2022-08-11T17:39:50.189Z,28.10
2022-08-11T17:42:36.917Z,27.98
2022-08-11T17:45:23.265Z,27.91
2022-08-11T17:48:09.090Z,27.86
2022-08-11T17:50:37.544Z,27.74
2022-08-11T17:53:23.132Z,27.67
2022-08-11T17:56:09.988Z,27.72
2022-08-11T17:58:57.571Z,27.75
2022-08-11T18:01:24.997Z,27.72
2022-08-11T18:03:56.272Z,27.64
2022-08-11T18:06:33.735Z,27.46
2022-08-11T18:09:22.111Z,27.45
2022-08-11T18:12:12.205Z,27.37
2022-08-11T18:15:01.070Z,27.33
2022-08-11T18:17:46.664Z,27.39
2022-08-11T18:20:32.253Z,27.32
2022-08-11T18:23:19.634Z,27.24
2022-08-11T18:26:07.658Z,27.10
2022-08-11T18:29:00.997Z,26.99
2022-08-11T18:31:46.824Z,26.91
2022-08-11T18:34:40.824Z,26.83
2022-08-11T18:37:38.189Z,26.75
2022-08-11T18:40:29.815Z,26.72
2022-08-11T18:43:17.836Z,26.56
2022-08-11T18:46:05.583Z,26.67
2022-08-11T18:49:01.074Z,26.75
2022-08-11T18:51:46.849Z,26.59
2022-08-11T18:54:32.732Z,26.47
2022-08-11T18:57:21.656Z,26.35
2022-08-11T19:00:08.091Z,26.26
2022-08-11T19:02:56.399Z,26.18
2022-08-11T19:06:32.509Z,25.95
2022-08-11T19:08:56.687Z,25.93
2022-08-11T19:11:43.839Z,25.89
2022-08-11T19:14:30.955Z,25.81
2022-08-11T19:17:43.646Z,25.76
2022-08-11T19:20:27.113Z,25.47
2022-08-11T19:23:14.023Z,25.54
2022-08-11T19:25:59.803Z,25.21
2022-08-11T19:28:45.104Z,25.05
2022-08-11T19:31:31.185Z,24.90
2022-08-11T19:34:17.190Z,24.88
2022-08-11T19:37:03.113Z,24.83
2022-08-11T19:39:49.111Z,24.69
2022-08-11T19:42:34.972Z,24.57
2022-08-11T19:45:20.736Z,24.38
2022-08-11T19:48:30.827Z,24.27
2022-08-11T19:51:12.828Z,23.92
2022-08-11T19:53:58.599Z,23.94
2022-08-11T19:56:44.014Z,23.75
2022-08-11T19:59:29.674Z,23.66
2022-08-11T20:02:15.305Z,23.48
2022-08-11T20:05:01.147Z,23.42
2022-08-11T20:07:46.920Z,23.45
2022-08-11T20:10:36.698Z,23.25
2022-08-11T20:13:22.584Z,23.23
2022-08-11T20:16:13.179Z,23.05
2022-08-11T20:19:00.167Z,23.05
2022-08-11T20:21:46.295Z,22.95
2022-08-11T20:24:32.944Z,22.92
2022-08-11T20:27:24.518Z,22.79
2022-08-11T20:30:10.875Z,22.81
2022-08-11T20:32:57.254Z,22.67
2022-08-11T20:35:42.936Z,22.50
2022-08-11T20:38:28.208Z,22.40
2022-08-11T20:41:16.264Z,22.12
2022-08-11T20:44:09.095Z,22.13
2022-08-11T20:46:57.276Z,21.97
2022-08-11T20:49:50.559Z,22.04
2022-08-11T20:52:40.817Z,22.04
2022-08-11T20:55:51.230Z,22.01
2022-08-11T21:01:42.150Z,21.84
2022-08-11T21:04:27.802Z,21.91
2022-08-11T21:07:17.141Z,21.80
2022-08-11T21:10:23.266Z,21.55
2022-08-11T21:13:27.033Z,21.37
2022-08-11T21:16:25.480Z,21.29
2022-08-11T21:19:59.629Z,21.11
2022-08-11T21:22:59.669Z,21.18
2022-08-11T21:26:04.836Z,21.16
2022-08-11T21:28:53.939Z,21.02
2022-08-11T21:31:40.412Z,20.96
2022-08-11T21:34:27.544Z,20.83
2022-08-11T21:37:12.959Z,20.68
2022-08-11T21:40:01.756Z,20.71
2022-08-11T21:42:47.640Z,20.59
2022-08-11T21:45:33.509Z,20.64
2022-08-11T21:48:19.587Z,20.55
2022-08-11T21:51:05.262Z,20.55
2022-08-11T21:53:51.074Z,20.39
2022-08-11T21:56:36.875Z,20.44
2022-08-11T21:59:22.928Z,20.43
2022-08-11T22:02:12.600Z,20.42
2022-08-11T22:04:59.216Z,20.38
2022-08-11T22:07:44.617Z,20.28
2022-08-11T22:10:41.493Z,20.14
2022-08-11T22:13:30.631Z,20.14
2022-08-11T22:16:16.955Z,20.03
2022-08-11T22:19:03.797Z,19.91
2022-08-11T22:22:01.398Z,19.96
2022-08-11T22:24:51.507Z,19.95
2022-08-11T22:27:36.925Z,19.82
2022-08-11T22:30:25.071Z,19.73
2022-08-11T22:33:11.166Z,19.77
2022-08-11T22:35:58.588Z,19.74
2022-08-11T22:38:45.092Z,19.66
2022-08-11T22:41:30.638Z,19.64
2022-08-11T22:44:16.036Z,19.51
2022-08-11T22:47:02.324Z,19.40
2022-08-11T22:49:57.942Z,19.36
2022-08-11T22:52:46.718Z,19.34
2022-08-11T22:55:34.089Z,19.41
2022-08-11T22:58:21.473Z,19.48
2022-08-11T23:01:07.931Z,19.32
2022-08-11T23:03:53.921Z,19.16
2022-08-11T23:06:39.878Z,18.96
2022-08-11T23:09:26.949Z,18.91
2022-08-11T23:12:12.281Z,19.00
2022-08-11T23:14:59.063Z,18.94
2022-08-11T23:17:45.457Z,18.85
2022-08-11T23:20:43.154Z,18.91
2022-08-11T23:23:31.000Z,18.81
2022-08-11T23:26:16.769Z,18.82
2022-08-11T23:29:04.948Z,18.86
2022-08-11T23:31:53.306Z,18.58
2022-08-11T23:35:03.006Z,18.47
2022-08-11T23:37:46.358Z,18.60
2022-08-11T23:40:31.757Z,18.41
2022-08-11T23:43:17.282Z,18.44
2022-08-11T23:46:02.520Z,18.45
2022-08-11T23:48:48.798Z,18.08
2022-08-11T23:51:38.696Z,18.17
2022-08-11T23:54:28.274Z,18.26
2022-08-11T23:57:14.283Z,18.11
2022-08-11T23:59:59.737Z,18.07
